createdAt,value
2016-05-31T00:00:08.078Z,0
2016-05-31T00:01:08.002Z,0
2016-05-31T00:02:22.239Z,0
2016-05-31T00:03:08.305Z,0
2016-05-31T00:04:08.697Z,0
2016-05-31T00:05:21.747Z,0
2016-05-31T00:06:21.703Z,0
2016-05-31T00:07:21.705Z,0
2016-05-31T00:08:07.818Z,0
2016-05-31T00:09:21.618Z,0
2016-05-31T00:10:35.636Z,0
2016-05-31T00:11:08.513Z,0
2016-05-31T00:12:07.797Z,0
2016-05-31T00:13:08.799Z,0
2016-05-31T00:14:07.896Z,0
2016-05-31T00:16:09.199Z,0
2016-05-31T00:17:21.467Z,0
2016-05-31T00:18:21.578Z,0
2016-05-31T00:19:21.441Z,0
2016-05-31T00:20:21.413Z,0
2016-05-31T00:23:25.123Z,0
2016-05-31T00:24:07.875Z,0
2016-05-31T00:25:20.661Z,0
2016-05-31T00:26:07.678Z,0
2016-05-31T00:27:48.683Z,0
2016-05-31T00:28:45.027Z,0
2016-05-31T00:29:30.672Z,0
2016-05-31T00:30:30.580Z,0
2016-05-31T00:32:20.069Z,0
2016-05-31T00:33:16.869Z,0
2016-05-31T00:35:30.563Z,0
2016-05-31T00:36:16.768Z,0
2016-05-31T00:37:18.786Z,0
2016-05-31T00:38:44.913Z,0
2016-05-31T00:39:17.433Z,0
2016-05-31T00:40:30.966Z,0
2016-05-31T00:41:30.453Z,0
2016-05-31T00:42:30.377Z,0
2016-05-31T00:43:30.287Z,0
2016-05-31T00:44:17.321Z,0
2016-05-31T00:46:19.217Z,0
2016-05-31T00:47:16.766Z,0
2016-05-31T00:49:17.429Z,0
2016-05-31T00:51:30.089Z,0
2016-05-31T00:52:30.562Z,0
2016-05-31T00:55:17.834Z,0
2016-05-31T00:56:18.494Z,0
2016-05-31T00:57:18.762Z,0
2016-05-31T00:59:36.345Z,0
2016-05-31T01:00:16.473Z,0
2016-05-31T01:01:16.928Z,0
2016-05-31T01:03:30.059Z,0
2016-05-31T01:04:43.969Z,0
2016-05-31T01:05:17.471Z,0
2016-05-31T01:06:43.567Z,0
2016-05-31T01:07:17.617Z,0
2016-05-31T01:08:16.213Z,0
2016-05-31T01:09:22.888Z,0
2016-05-31T01:10:16.391Z,0
2016-05-31T01:11:23.002Z,0
2016-05-31T01:12:16.068Z,0
2016-05-31T01:13:18.352Z,0
2016-05-31T01:14:43.901Z,0
2016-05-31T01:15:16.076Z,0
2016-05-31T01:16:16.673Z,0
2016-05-31T01:17:22.221Z,0
2016-05-31T01:18:16.193Z,0
2016-05-31T01:19:16.884Z,0
2016-05-31T01:20:16.214Z,0
2016-05-31T01:22:15.860Z,0
2016-05-31T01:23:17.097Z,0
2016-05-31T01:24:29.835Z,0
2016-05-31T01:25:29.540Z,0
2016-05-31T01:26:43.496Z,0
2016-05-31T01:28:43.173Z,0
2016-05-31T01:29:16.051Z,0
2016-05-31T01:30:16.461Z,0
2016-05-31T01:31:15.931Z,0
2016-05-31T01:32:21.091Z,0
2016-05-31T01:33:16.139Z,0
2016-05-31T01:34:16.081Z,0
2016-05-31T01:35:16.474Z,0
2016-05-31T01:36:29.194Z,0
2016-05-31T01:38:42.997Z,0
2016-05-31T01:39:42.985Z,0
2016-05-31T01:40:16.112Z,0
2016-05-31T01:41:32.208Z,0
2016-05-31T01:42:16.179Z,0
2016-05-31T01:43:29.182Z,0
2016-05-31T01:45:18.985Z,0
2016-05-31T01:46:16.721Z,0
2016-05-31T01:47:29.318Z,0
2016-05-31T01:48:29.071Z,0
2016-05-31T01:49:29.058Z,0
2016-05-31T01:50:30.076Z,0
2016-05-31T01:51:28.892Z,0
2016-05-31T01:52:29.020Z,0
2016-05-31T01:53:15.803Z,0
2016-05-31T01:54:15.212Z,0
2016-05-31T01:55:28.918Z,0
2016-05-31T01:56:29.452Z,0
2016-05-31T01:57:15.704Z,0
2016-05-31T01:58:15.379Z,0
2016-05-31T02:00:29.650Z,0
2016-05-31T02:04:42.442Z,0
2016-05-31T02:05:15.054Z,0
2016-05-31T02:07:42.669Z,0
2016-05-31T02:08:15.249Z,0
2016-05-31T02:10:14.896Z,0
2016-05-31T02:11:14.836Z,0
2016-05-31T02:12:42.292Z,0
2016-05-31T02:13:42.576Z,0
2016-05-31T02:14:15.079Z,0
2016-05-31T02:15:16.207Z,0
2016-05-31T02:16:17.802Z,0
2016-05-31T02:17:15.368Z,0
2016-05-31T02:18:14.621Z,0
2016-05-31T02:19:16.561Z,0
2016-05-31T02:20:28.579Z,0
2016-05-31T02:21:15.129Z,0
2016-05-31T02:22:14.928Z,0
2016-05-31T02:23:14.493Z,0
2016-05-31T02:24:28.324Z,0
2016-05-31T02:25:28.499Z,0
2016-05-31T02:26:14.908Z,0
2016-05-31T02:27:28.145Z,0
2016-05-31T02:28:28.148Z,0
2016-05-31T02:29:14.401Z,0
2016-05-31T02:30:15.122Z,0
2016-05-31T02:32:14.814Z,0
2016-05-31T02:33:15.098Z,0
2016-05-31T02:34:15.258Z,0
2016-05-31T02:35:14.573Z,0
2016-05-31T02:36:14.200Z,0
2016-05-31T02:38:28.986Z,0
2016-05-31T02:39:14.380Z,0
2016-05-31T02:40:14.774Z,0
2016-05-31T02:41:21.244Z,0
2016-05-31T02:42:15.622Z,0
2016-05-31T02:44:14.956Z,0
2016-05-31T02:47:27.698Z,0
2016-05-31T02:48:13.920Z,0
2016-05-31T02:51:42.022Z,0
2016-05-31T02:52:15.649Z,0
2016-05-31T02:54:27.764Z,0
2016-05-31T02:55:14.157Z,0
2016-05-31T02:57:42.210Z,0
2016-05-31T02:58:14.025Z,4
2016-05-31T02:59:28.121Z,0
2016-05-31T03:00:27.639Z,0
2016-05-31T03:01:28.159Z,0
2016-05-31T03:02:28.145Z,0
2016-05-31T03:03:27.554Z,4
2016-05-31T03:04:27.634Z,4
2016-05-31T03:05:27.528Z,0
2016-05-31T03:06:27.453Z,0
2016-05-31T03:07:14.471Z,4
2016-05-31T03:08:14.053Z,4
2016-05-31T03:09:14.555Z,0
2016-05-31T03:10:13.933Z,4
2016-05-31T03:12:41.468Z,4
2016-05-31T03:14:27.286Z,4
2016-05-31T03:15:13.571Z,4
2016-05-31T03:16:13.699Z,8
2016-05-31T03:17:27.107Z,8
2016-05-31T03:19:13.691Z,8
2016-05-31T03:20:13.927Z,8
2016-05-31T03:23:40.671Z,12
2016-05-31T03:24:27.438Z,12
2016-05-31T03:25:27.051Z,12
2016-05-31T03:26:27.054Z,16
2016-05-31T03:27:14.837Z,16
2016-05-31T03:28:14.823Z,16
2016-05-31T03:29:13.359Z,20
2016-05-31T03:31:13.254Z,20
2016-05-31T03:32:17.164Z,20
2016-05-31T03:33:27.806Z,24
2016-05-31T03:34:13.856Z,24
2016-05-31T03:35:26.765Z,28
2016-05-31T03:36:13.675Z,28
2016-05-31T03:37:26.833Z,28
2016-05-31T03:38:28.211Z,28
2016-05-31T03:39:12.901Z,32
2016-05-31T03:41:13.016Z,32
2016-05-31T03:42:27.424Z,36
2016-05-31T03:43:26.568Z,36
2016-05-31T03:44:13.852Z,40
2016-05-31T03:46:13.811Z,48
2016-05-31T03:49:26.631Z,52
2016-05-31T03:51:12.823Z,56
2016-05-31T03:53:13.563Z,64
2016-05-31T03:54:13.332Z,72
2016-05-31T03:55:26.491Z,76
2016-05-31T03:57:26.418Z,80
2016-05-31T03:59:40.673Z,92
2016-05-31T04:00:13.895Z,88
2016-05-31T04:02:14.338Z,92
2016-05-31T04:04:12.545Z,108
2016-05-31T04:05:13.784Z,112
2016-05-31T04:06:12.926Z,112
2016-05-31T04:07:27.585Z,112
2016-05-31T04:08:14.135Z,104
2016-05-31T04:09:26.201Z,104
2016-05-31T04:10:12.547Z,112
2016-05-31T04:11:26.627Z,124
2016-05-31T04:12:26.084Z,104
2016-05-31T04:13:39.836Z,112
2016-05-31T04:16:13.203Z,120
2016-05-31T04:17:26.644Z,124
2016-05-31T04:18:12.896Z,132
2016-05-31T04:19:12.899Z,140
2016-05-31T04:20:13.058Z,128
2016-05-31T04:21:12.060Z,148
2016-05-31T04:22:26.532Z,140
2016-05-31T04:23:26.597Z,156
2016-05-31T04:24:25.710Z,144
2016-05-31T04:26:14.918Z,148
2016-05-31T04:27:12.765Z,132
2016-05-31T04:28:12.485Z,132
2016-05-31T04:30:11.959Z,124
2016-05-31T04:31:12.744Z,136
2016-05-31T04:33:11.936Z,160
2016-05-31T04:35:39.364Z,176
2016-05-31T04:36:11.944Z,172
2016-05-31T04:37:39.323Z,184
2016-05-31T04:38:13.325Z,188
2016-05-31T04:39:12.469Z,184
2016-05-31T04:40:25.830Z,188
2016-05-31T04:41:12.037Z,192
2016-05-31T04:42:11.836Z,200
2016-05-31T04:43:12.291Z,200
2016-05-31T04:44:14.044Z,204
2016-05-31T04:45:11.578Z,208
2016-05-31T04:46:25.738Z,220
2016-05-31T04:48:13.102Z,224
2016-05-31T04:49:12.230Z,228
2016-05-31T04:50:11.607Z,236
2016-05-31T04:51:11.610Z,248
2016-05-31T04:52:25.550Z,248
2016-05-31T04:53:25.538Z,252
2016-05-31T04:54:12.243Z,236
2016-05-31T04:55:12.137Z,252
2016-05-31T04:56:11.420Z,232
2016-05-31T04:57:11.470Z,304
2016-05-31T04:58:25.426Z,308
2016-05-31T04:59:25.428Z,320
2016-05-31T05:02:13.295Z,332
2016-05-31T05:03:12.690Z,340
2016-05-31T05:04:11.895Z,292
2016-05-31T05:06:11.994Z,284
2016-05-31T05:07:11.201Z,284
2016-05-31T05:08:11.093Z,280
2016-05-31T05:09:24.939Z,280
2016-05-31T05:11:24.897Z,256
2016-05-31T05:12:24.933Z,256
2016-05-31T05:13:38.560Z,248
2016-05-31T05:14:12.359Z,256
2016-05-31T05:15:12.659Z,260
2016-05-31T05:16:11.099Z,276
2016-05-31T05:17:12.133Z,280
2016-05-31T05:18:11.041Z,272
2016-05-31T05:19:10.998Z,276
2016-05-31T05:20:11.719Z,288
2016-05-31T05:21:10.988Z,284
2016-05-31T05:22:10.849Z,304
2016-05-31T05:23:12.352Z,308
2016-05-31T05:24:24.715Z,320
2016-05-31T05:25:11.357Z,320
2016-05-31T05:26:10.938Z,336
2016-05-31T05:27:11.598Z,344
2016-05-31T05:28:10.882Z,348
2016-05-31T05:29:24.649Z,360
2016-05-31T05:30:10.824Z,368
2016-05-31T05:31:10.796Z,360
2016-05-31T05:32:24.376Z,368
2016-05-31T05:33:11.629Z,372
2016-05-31T05:34:10.726Z,368
2016-05-31T05:35:24.698Z,332
2016-05-31T05:36:10.684Z,328
2016-05-31T05:37:11.203Z,340
2016-05-31T05:38:11.142Z,344
2016-05-31T05:39:11.208Z,316
2016-05-31T05:40:10.523Z,292
2016-05-31T05:41:10.822Z,280
2016-05-31T05:42:10.420Z,272
2016-05-31T05:43:24.266Z,220
2016-05-31T05:44:10.503Z,232
2016-05-31T05:46:38.102Z,216
2016-05-31T05:47:23.995Z,204
2016-05-31T05:48:10.622Z,212
2016-05-31T05:49:12.094Z,228
2016-05-31T05:50:10.362Z,236
2016-05-31T05:51:10.772Z,360
2016-05-31T05:52:10.352Z,360
2016-05-31T05:53:11.807Z,356
2016-05-31T05:54:10.405Z,300
2016-05-31T05:55:10.860Z,248
2016-05-31T05:56:24.004Z,256
2016-05-31T05:57:24.202Z,260
2016-05-31T05:58:24.248Z,268
2016-05-31T05:59:10.824Z,280
2016-05-31T06:00:10.368Z,268
2016-05-31T06:01:10.522Z,256
2016-05-31T06:02:10.624Z,256
2016-05-31T06:03:11.183Z,248
2016-05-31T06:04:24.336Z,240
2016-05-31T06:05:23.958Z,248
2016-05-31T06:06:23.970Z,260
2016-05-31T06:07:10.480Z,292
2016-05-31T06:08:10.111Z,324
2016-05-31T06:09:10.696Z,364
2016-05-31T06:11:11.646Z,384
2016-05-31T06:12:10.182Z,436
2016-05-31T06:13:10.310Z,456
2016-05-31T06:14:23.831Z,500
2016-05-31T06:15:10.085Z,436
2016-05-31T06:16:11.244Z,388
2016-05-31T06:17:10.701Z,416
2016-05-31T06:18:23.751Z,400
2016-05-31T06:19:23.723Z,388
2016-05-31T06:20:10.179Z,384
2016-05-31T06:21:30.713Z,284
2016-05-31T06:23:11.782Z,248
2016-05-31T06:24:23.674Z,292
2016-05-31T06:25:23.647Z,292
2016-05-31T06:27:09.715Z,260
2016-05-31T06:28:10.185Z,312
2016-05-31T06:29:09.876Z,396
2016-05-31T06:30:10.660Z,412
2016-05-31T06:31:09.740Z,460
2016-05-31T06:32:23.478Z,464
2016-05-31T06:33:09.620Z,492
2016-05-31T06:34:10.249Z,404
2016-05-31T06:35:23.532Z,368
2016-05-31T06:36:09.910Z,344
2016-05-31T06:37:09.975Z,448
2016-05-31T06:38:10.385Z,400
2016-05-31T06:40:10.499Z,468
2016-05-31T06:41:23.252Z,556
2016-05-31T06:42:23.551Z,576
2016-05-31T06:43:23.273Z,612
2016-05-31T06:44:09.510Z,480
2016-05-31T06:45:10.138Z,548
2016-05-31T06:47:09.503Z,604
2016-05-31T06:48:09.724Z,608
2016-05-31T06:49:09.399Z,724
2016-05-31T06:50:09.480Z,704
2016-05-31T06:51:23.075Z,660
2016-05-31T06:52:10.266Z,692
2016-05-31T06:53:09.409Z,692
2016-05-31T06:54:23.037Z,728
2016-05-31T06:56:10.011Z,556
2016-05-31T06:57:09.623Z,552
2016-05-31T06:58:26.001Z,700
2016-05-31T06:59:08.988Z,540
2016-05-31T07:00:09.600Z,496
2016-05-31T07:01:10.227Z,420
2016-05-31T07:02:09.324Z,396
2016-05-31T07:03:09.201Z,436
2016-05-31T07:04:24.235Z,400
2016-05-31T07:05:09.223Z,396
2016-05-31T07:06:23.162Z,388
2016-05-31T07:07:09.415Z,384
2016-05-31T07:08:11.262Z,384
2016-05-31T07:09:09.499Z,392
2016-05-31T07:10:08.705Z,380
2016-05-31T07:11:09.067Z,364
2016-05-31T07:12:09.272Z,352
2016-05-31T07:13:09.042Z,376
2016-05-31T07:14:22.450Z,400
2016-05-31T07:15:09.453Z,412
2016-05-31T07:16:09.424Z,496
2016-05-31T07:18:22.960Z,564
2016-05-31T07:20:09.310Z,480
2016-05-31T07:21:09.063Z,420
2016-05-31T07:22:09.362Z,420
2016-05-31T07:23:23.350Z,500
2016-05-31T07:24:08.836Z,528
2016-05-31T07:25:09.135Z,688
2016-05-31T07:26:22.482Z,480
2016-05-31T07:27:08.876Z,468
2016-05-31T07:28:08.988Z,416
2016-05-31T07:29:09.771Z,464
2016-05-31T07:30:22.337Z,380
2016-05-31T07:31:08.699Z,344
2016-05-31T07:33:10.173Z,320
2016-05-31T07:34:09.863Z,328
2016-05-31T07:35:09.615Z,500
2016-05-31T07:36:08.634Z,516
2016-05-31T07:37:08.668Z,472
2016-05-31T07:38:10.859Z,416
2016-05-31T07:39:08.564Z,496
2016-05-31T07:40:08.411Z,332
2016-05-31T07:41:09.460Z,296
2016-05-31T07:42:08.337Z,272
2016-05-31T07:43:08.747Z,268
2016-05-31T07:44:22.389Z,252
2016-05-31T07:45:22.034Z,452
2016-05-31T07:46:08.412Z,352
2016-05-31T07:47:09.086Z,236
2016-05-31T07:48:21.963Z,380
2016-05-31T07:49:10.669Z,460
2016-05-31T07:50:08.703Z,248
2016-05-31T07:51:08.409Z,476
2016-05-31T07:52:21.880Z,472
2016-05-31T07:53:09.117Z,476
2016-05-31T07:54:09.073Z,356
2016-05-31T07:55:21.639Z,300
2016-05-31T07:56:08.532Z,352
2016-05-31T07:57:21.816Z,460
2016-05-31T07:58:35.755Z,452
2016-05-31T08:00:07.840Z,572
2016-05-31T08:01:08.499Z,604
2016-05-31T08:03:07.831Z,456
2016-05-31T08:04:10.022Z,556
2016-05-31T08:06:35.387Z,632
2016-05-31T08:07:08.576Z,624
2016-05-31T08:08:21.845Z,800
2016-05-31T08:09:35.253Z,832
2016-05-31T08:10:22.226Z,892
2016-05-31T08:11:35.838Z,804
2016-05-31T08:12:08.418Z,800
2016-05-31T08:13:07.827Z,804
2016-05-31T08:14:22.503Z,860
2016-05-31T08:16:07.789Z,864
2016-05-31T08:17:08.181Z,836
2016-05-31T08:18:08.403Z,916
2016-05-31T08:19:21.390Z,928
2016-05-31T08:20:21.393Z,880
2016-05-31T08:21:21.411Z,1044
2016-05-31T08:22:09.539Z,1048
2016-05-31T08:23:35.088Z,788
2016-05-31T08:24:07.560Z,764
2016-05-31T08:25:07.813Z,852
2016-05-31T08:26:07.488Z,884
2016-05-31T08:27:21.162Z,948
2016-05-31T08:28:21.211Z,864
2016-05-31T08:29:07.854Z,884
2016-05-31T08:30:21.280Z,784
2016-05-31T08:31:07.829Z,800
2016-05-31T08:32:07.426Z,864
2016-05-31T08:33:07.303Z,856
2016-05-31T08:34:07.743Z,840
2016-05-31T08:35:08.262Z,872
2016-05-31T08:36:07.279Z,888
2016-05-31T08:37:21.596Z,1060
2016-05-31T08:39:07.804Z,984
2016-05-31T08:40:07.447Z,1092
2016-05-31T08:41:08.387Z,1128
2016-05-31T08:42:20.874Z,956
2016-05-31T08:43:07.705Z,924
2016-05-31T08:44:21.020Z,936
2016-05-31T08:46:07.322Z,868
2016-05-31T08:47:07.716Z,800
2016-05-31T08:48:08.484Z,660
2016-05-31T08:49:20.815Z,528
2016-05-31T08:50:07.270Z,520
2016-05-31T08:51:08.648Z,580
2016-05-31T08:52:07.072Z,448
2016-05-31T08:53:07.357Z,384
2016-05-31T08:54:07.969Z,380
2016-05-31T08:55:20.800Z,400
2016-05-31T08:56:20.536Z,444
2016-05-31T08:57:20.711Z,508
2016-05-31T08:58:07.402Z,596
2016-05-31T08:59:21.654Z,680
2016-05-31T09:00:06.969Z,736
2016-05-31T09:01:07.332Z,848
2016-05-31T09:02:08.271Z,756
2016-05-31T09:03:06.930Z,644
2016-05-31T09:04:06.996Z,592
2016-05-31T09:06:06.798Z,504
2016-05-31T09:07:20.770Z,504
2016-05-31T09:08:07.991Z,508
2016-05-31T09:10:07.262Z,880
2016-05-31T09:11:07.561Z,1104
2016-05-31T09:12:07.829Z,1184
2016-05-31T09:13:07.395Z,1236
2016-05-31T09:14:20.289Z,1260
2016-05-31T09:16:20.122Z,1192
2016-05-31T09:17:20.514Z,1132
2016-05-31T09:18:20.550Z,1164
2016-05-31T09:19:09.770Z,1216
2016-05-31T09:21:06.963Z,1256
2016-05-31T09:23:06.343Z,1284
2016-05-31T09:24:06.644Z,1328
2016-05-31T09:25:07.302Z,1328
2016-05-31T09:26:06.727Z,1308
2016-05-31T09:27:06.385Z,1332
2016-05-31T09:28:20.280Z,1324
2016-05-31T09:29:19.813Z,1304
2016-05-31T09:30:19.972Z,1232
2016-05-31T09:31:06.693Z,1280
2016-05-31T09:32:06.119Z,1020
2016-05-31T09:33:06.135Z,1080
2016-05-31T09:34:09.608Z,1036
2016-05-31T09:35:06.157Z,772
2016-05-31T09:36:20.581Z,668
2016-05-31T09:37:06.554Z,736
2016-05-31T09:38:06.260Z,908
2016-05-31T09:39:06.949Z,876
2016-05-31T09:40:06.234Z,1012
2016-05-31T09:41:06.876Z,1136
2016-05-31T09:42:19.739Z,1388
2016-05-31T09:43:08.225Z,1348
2016-05-31T09:44:07.025Z,1212
2016-05-31T09:45:06.215Z,1164
2016-05-31T09:46:06.484Z,1104
2016-05-31T09:48:06.083Z,1224
2016-05-31T09:49:06.883Z,1192
2016-05-31T09:50:06.136Z,1176
2016-05-31T09:51:06.419Z,1064
2016-05-31T09:52:06.125Z,948
2016-05-31T09:53:06.205Z,860
2016-05-31T09:54:05.630Z,864
2016-05-31T09:56:05.745Z,876
2016-05-31T09:57:05.810Z,948
2016-05-31T09:58:06.000Z,1016
2016-05-31T09:59:06.049Z,1148
2016-05-31T10:00:19.131Z,1192
2016-05-31T10:01:06.383Z,1144
2016-05-31T10:02:06.324Z,1056
2016-05-31T10:03:05.670Z,992
2016-05-31T10:04:05.969Z,972
2016-05-31T10:05:05.659Z,992
2016-05-31T10:06:05.444Z,1112
2016-05-31T10:07:06.446Z,1256
2016-05-31T10:08:05.262Z,1388
2016-05-31T10:09:05.670Z,1384
2016-05-31T10:10:05.674Z,1316
2016-05-31T10:11:05.535Z,1240
2016-05-31T10:12:05.476Z,1368
2016-05-31T10:13:05.900Z,1448
2016-05-31T10:14:19.340Z,1572
2016-05-31T10:15:06.217Z,1620
2016-05-31T10:16:19.674Z,1592
2016-05-31T10:17:05.489Z,1600
2016-05-31T10:18:19.007Z,1584
2016-05-31T10:20:06.810Z,1492
2016-05-31T10:21:05.234Z,1412
2016-05-31T10:22:05.877Z,1332
2016-05-31T10:23:05.662Z,1312
2016-05-31T10:24:05.148Z,1308
2016-05-31T10:25:18.947Z,1152
2016-05-31T10:26:05.685Z,1180
2016-05-31T10:27:18.875Z,1300
2016-05-31T10:28:05.409Z,1416
2016-05-31T10:29:18.755Z,1268
2016-05-31T10:30:32.524Z,1240
2016-05-31T10:31:18.949Z,1228
2016-05-31T10:33:05.407Z,1120
2016-05-31T10:34:05.863Z,944
2016-05-31T10:35:18.787Z,792
2016-05-31T10:36:05.337Z,744
2016-05-31T10:37:05.105Z,692
2016-05-31T10:38:06.468Z,604
2016-05-31T10:39:07.485Z,516
2016-05-31T10:40:05.129Z,496
2016-05-31T10:41:19.007Z,456
2016-05-31T10:43:05.590Z,424
2016-05-31T10:44:05.077Z,420
2016-05-31T10:45:05.361Z,412
2016-05-31T10:46:06.567Z,412
2016-05-31T10:47:04.707Z,436
2016-05-31T10:48:06.228Z,504
2016-05-31T10:49:04.951Z,572
2016-05-31T10:50:04.810Z,684
2016-05-31T10:51:18.846Z,912
2016-05-31T10:52:04.721Z,1024
2016-05-31T10:53:18.632Z,1212
2016-05-31T10:54:05.026Z,1316
2016-05-31T10:55:05.138Z,1504
2016-05-31T10:56:05.313Z,1712
2016-05-31T10:57:06.144Z,1808
2016-05-31T10:58:04.566Z,1892
2016-05-31T10:59:04.724Z,2028
2016-05-31T11:00:05.261Z,1964
2016-05-31T11:01:04.714Z,1884
2016-05-31T11:04:18.224Z,1748
2016-05-31T11:05:07.462Z,1676
2016-05-31T11:06:05.118Z,1684
2016-05-31T11:09:05.676Z,1920
2016-05-31T11:10:05.301Z,1844
2016-05-31T11:11:04.365Z,1660
2016-05-31T11:12:04.431Z,1708
2016-05-31T11:13:04.324Z,1720
2016-05-31T11:14:05.987Z,1744
2016-05-31T11:15:04.252Z,1832
2016-05-31T11:16:18.226Z,1904
2016-05-31T11:17:04.429Z,1932
2016-05-31T11:18:04.323Z,1884
2016-05-31T11:19:04.325Z,1604
2016-05-31T11:20:04.781Z,1608
2016-05-31T11:21:04.377Z,1604
2016-05-31T11:22:04.942Z,1552
2016-05-31T11:23:04.804Z,1560
2016-05-31T11:24:04.557Z,1528
2016-05-31T11:25:04.591Z,1476
2016-05-31T11:26:05.312Z,1568
2016-05-31T11:27:04.362Z,1532
2016-05-31T11:28:05.146Z,1672
2016-05-31T11:29:04.086Z,1740
2016-05-31T11:30:05.464Z,1712
2016-05-31T11:31:04.747Z,1848
2016-05-31T11:32:04.578Z,1668
2016-05-31T11:33:04.315Z,1676
2016-05-31T11:34:03.928Z,1472
2016-05-31T11:35:17.636Z,1328
2016-05-31T11:36:04.027Z,1404
2016-05-31T11:37:04.466Z,1288
2016-05-31T11:38:03.282Z,1112
2016-05-31T11:39:17.553Z,1072
2016-05-31T11:40:04.443Z,1140
2016-05-31T11:42:03.824Z,1156
2016-05-31T11:43:03.936Z,1004
2016-05-31T11:44:03.908Z,904
2016-05-31T11:45:17.726Z,860
2016-05-31T11:46:04.679Z,852
2016-05-31T11:47:04.541Z,868
2016-05-31T11:48:03.731Z,940
2016-05-31T11:49:03.514Z,920
2016-05-31T11:50:04.111Z,960
2016-05-31T11:51:17.664Z,896
2016-05-31T11:52:03.742Z,884
2016-05-31T11:53:04.901Z,848
2016-05-31T11:54:03.653Z,776
2016-05-31T11:55:03.484Z,704
2016-05-31T11:56:17.989Z,660
2016-05-31T11:57:03.927Z,652
2016-05-31T11:58:03.477Z,624
2016-05-31T11:59:03.730Z,604
2016-05-31T12:00:03.669Z,628
2016-05-31T12:01:04.563Z,652
2016-05-31T12:02:04.049Z,656
2016-05-31T12:03:17.353Z,668
2016-05-31T12:04:03.369Z,680
2016-05-31T12:05:03.886Z,672
2016-05-31T12:06:03.733Z,784
2016-05-31T12:07:03.782Z,1720
2016-05-31T12:08:03.581Z,2296
2016-05-31T12:09:04.241Z,6060
2016-05-31T12:10:17.340Z,8100
2016-05-31T12:11:03.496Z,3108
2016-05-31T12:12:03.686Z,25248
2016-05-31T12:13:16.879Z,4276
2016-05-31T12:14:03.441Z,4376
2016-05-31T12:15:30.806Z,2220
2016-05-31T12:16:03.212Z,2972
2016-05-31T12:17:30.499Z,2340
2016-05-31T12:18:04.031Z,2496
2016-05-31T12:19:04.283Z,2032
2016-05-31T12:20:03.067Z,2136
2016-05-31T12:21:03.554Z,1848
2016-05-31T12:22:03.323Z,1672
2016-05-31T12:23:03.357Z,1704
2016-05-31T12:24:03.406Z,1544
2016-05-31T12:25:03.439Z,1512
2016-05-31T12:26:17.617Z,1360
2016-05-31T12:27:06.758Z,1380
2016-05-31T12:28:16.669Z,1596
2016-05-31T12:29:16.844Z,1572
2016-05-31T12:30:03.078Z,1496
2016-05-31T12:31:03.237Z,1460
2016-05-31T12:32:03.083Z,1484
2016-05-31T12:33:03.383Z,1496
2016-05-31T12:34:03.260Z,1520
2016-05-31T12:35:03.060Z,1516
2016-05-31T12:36:02.907Z,1652
2016-05-31T12:37:03.269Z,1812
2016-05-31T12:38:16.446Z,2388
2016-05-31T12:39:03.196Z,2820
2016-05-31T12:40:02.715Z,3092
2016-05-31T12:41:16.391Z,2896
2016-05-31T12:42:03.641Z,2896
2016-05-31T12:43:02.926Z,2912
2016-05-31T12:44:02.741Z,2984
2016-05-31T12:45:02.696Z,2884
2016-05-31T12:46:03.012Z,2716
2016-05-31T12:47:03.092Z,2576
2016-05-31T12:48:03.782Z,2588
2016-05-31T12:49:03.740Z,2676
2016-05-31T12:50:03.117Z,2556
2016-05-31T12:51:29.918Z,2792
2016-05-31T12:52:16.484Z,2808
2016-05-31T12:53:02.843Z,2908
2016-05-31T12:55:03.473Z,2824
2016-05-31T12:56:02.164Z,2892
2016-05-31T12:57:03.901Z,2576
2016-05-31T12:58:03.450Z,3252
2016-05-31T12:59:02.219Z,3348
2016-05-31T13:00:02.706Z,3096
2016-05-31T13:01:16.149Z,2984
2016-05-31T13:02:16.042Z,2192
2016-05-31T13:03:16.045Z,1824
2016-05-31T13:04:03.795Z,1552
2016-05-31T13:05:02.000Z,1420
2016-05-31T13:06:15.943Z,1212
2016-05-31T13:07:02.052Z,1248
2016-05-31T13:08:02.384Z,1444
2016-05-31T13:09:02.980Z,1760
2016-05-31T13:10:02.546Z,1712
2016-05-31T13:11:02.063Z,1664
2016-05-31T13:12:02.410Z,1664
2016-05-31T13:13:02.349Z,1404
2016-05-31T13:14:16.199Z,1128
2016-05-31T13:15:02.840Z,1004
2016-05-31T13:16:02.405Z,924
2016-05-31T13:17:15.754Z,960
2016-05-31T13:18:03.504Z,956
2016-05-31T13:19:04.241Z,912
2016-05-31T13:20:02.400Z,800
2016-05-31T13:21:07.246Z,760
2016-05-31T13:22:02.203Z,764
2016-05-31T13:23:02.143Z,832
2016-05-31T13:24:01.942Z,844
2016-05-31T13:25:01.898Z,924
2016-05-31T13:26:01.994Z,1112
2016-05-31T13:27:01.935Z,1284
2016-05-31T13:28:15.533Z,2488
2016-05-31T13:29:29.068Z,3944
2016-05-31T13:31:03.023Z,5148
2016-05-31T13:32:03.229Z,3800
2016-05-31T13:33:02.279Z,4404
2016-05-31T13:34:02.719Z,4584
2016-05-31T13:35:01.909Z,4364
2016-05-31T13:36:16.289Z,4500
2016-05-31T13:37:02.586Z,4760
2016-05-31T13:38:06.339Z,3816
2016-05-31T13:39:02.107Z,3756
2016-05-31T13:40:15.863Z,3880
2016-05-31T13:41:15.177Z,5028
2016-05-31T13:42:01.896Z,5156
2016-05-31T13:43:02.260Z,4208
2016-05-31T13:44:01.996Z,4660
2016-05-31T13:45:02.640Z,3916
2016-05-31T13:46:02.486Z,8980
2016-05-31T13:47:02.004Z,3604
2016-05-31T13:48:16.368Z,3488
2016-05-31T13:49:03.868Z,2224
2016-05-31T13:50:15.468Z,1660
2016-05-31T13:51:14.940Z,1600
2016-05-31T13:52:03.596Z,1884
2016-05-31T13:54:02.070Z,2204
2016-05-31T13:55:14.325Z,3428
2016-05-31T13:56:01.481Z,2620
2016-05-31T13:57:36.565Z,3424
2016-05-31T13:58:02.784Z,3144
2016-05-31T13:59:15.633Z,5140
2016-05-31T14:00:02.445Z,14612
2016-05-31T14:01:16.795Z,11144
2016-05-31T14:02:27.625Z,21152
2016-05-31T14:03:16.080Z,15872
2016-05-31T14:04:01.533Z,24928
2016-05-31T14:05:01.397Z,45888
2016-05-31T14:06:15.183Z,15936
2016-05-31T14:07:01.730Z,9964
2016-05-31T14:08:15.907Z,6088
2016-05-31T14:09:02.188Z,4052
2016-05-31T14:10:04.332Z,4816
2016-05-31T14:11:02.115Z,8312
2016-05-31T14:12:01.962Z,14208
2016-05-31T14:14:01.405Z,28512
2016-05-31T14:15:01.063Z,20704
2016-05-31T14:16:14.663Z,27520
2016-05-31T14:17:14.821Z,16128
2016-05-31T14:18:01.103Z,12456
2016-05-31T14:19:00.793Z,5416
2016-05-31T14:20:02.623Z,3396
2016-05-31T14:21:01.158Z,2412
2016-05-31T14:22:14.820Z,2304
2016-05-31T14:23:01.007Z,1556
2016-05-31T14:24:01.041Z,2300
2016-05-31T14:25:00.918Z,2208
2016-05-31T14:26:14.517Z,2708
2016-05-31T14:27:01.111Z,2696
2016-05-31T14:28:02.630Z,2512
2016-05-31T14:29:14.995Z,1976
2016-05-31T14:30:01.104Z,1624
2016-05-31T14:31:00.731Z,1788
2016-05-31T14:32:00.719Z,2184
2016-05-31T14:34:00.428Z,1444
2016-05-31T14:36:00.682Z,1140
2016-05-31T14:37:21.000Z,1256
2016-05-31T14:39:14.194Z,1432
2016-05-31T14:40:27.852Z,1488
2016-05-31T14:42:01.371Z,2708
2016-05-31T14:43:00.467Z,2252
2016-05-31T14:44:02.282Z,1896
2016-05-31T14:45:01.769Z,2100
2016-05-31T14:46:01.366Z,3080
2016-05-31T14:47:01.009Z,3000
2016-05-31T14:48:00.855Z,3184
2016-05-31T14:49:01.249Z,3152
2016-05-31T14:50:00.502Z,2656
2016-05-31T14:51:01.442Z,2460
2016-05-31T14:52:14.494Z,1812
2016-05-31T14:53:00.463Z,1812
2016-05-31T14:54:06.918Z,2128
2016-05-31T14:55:14.595Z,2084
2016-05-31T14:56:01.330Z,1728
2016-05-31T14:57:16.007Z,1368
2016-05-31T14:58:00.492Z,1340
2016-05-31T14:59:01.010Z,1420
2016-05-31T15:00:01.045Z,1688
2016-05-31T15:02:00.378Z,1560
2016-05-31T15:03:14.566Z,1756
2016-05-31T15:04:04.909Z,1904
2016-05-31T15:05:01.315Z,1660
2016-05-31T15:06:01.938Z,1896
2016-05-31T15:07:00.468Z,2036
2016-05-31T15:08:14.943Z,2168
2016-05-31T15:09:01.240Z,2092
2016-05-31T15:10:01.222Z,2212
2016-05-31T15:11:00.500Z,2000
2016-05-31T15:12:00.653Z,1872
2016-05-31T15:13:00.385Z,1804
2016-05-31T15:14:28.229Z,1944
2016-05-31T15:16:01.219Z,2300
2016-05-31T15:17:00.272Z,2372
2016-05-31T15:19:03.800Z,1976
2016-05-31T15:20:00.694Z,2008
2016-05-31T15:21:00.137Z,2008
2016-05-31T15:21:59.874Z,2052
2016-05-31T15:23:00.331Z,2188
2016-05-31T15:24:00.430Z,3100
2016-05-31T15:25:03.057Z,2368
2016-05-31T15:26:14.438Z,2292
2016-05-31T15:27:00.422Z,2216